Time;durP1;ratioP1;P1;durP2;ratioP2;P2;SDS_P1;SDS_P2;PMS_P1;PMS_P2;Temp;Humidity;BMP_temperature;BMP_pressure;BME280_temperature;BME280_humidity;BME280_pressure;Samples;Min_cycle;Max_cycle;Signal;HPM_P1;HPM_P2
2022/10/22 00:00:10;;;;;;;0.60;0.60;;;12.90;99.90;;;;;;5071636;28;20202;-76
2022/10/22 00:02:36;;;;;;;0.53;0.53;;;12.90;99.90;;;;;;5071388;28;20210;-75
2022/10/22 00:05:02;;;;;;;0.40;0.40;;;12.90;99.90;;;;;;5070690;28;20263;-76
2022/10/22 00:07:27;;;;;;;0.40;0.40;;;12.90;99.90;;;;;;5071004;28;20666;-75
2022/10/22 00:09:53;;;;;;;0.47;0.47;;;12.90;99.90;;;;;;5070651;28;20265;-76
2022/10/22 00:12:19;;;;;;;0.60;0.60;;;12.80;99.90;;;;;;5071143;28;20193;-75
2022/10/22 00:14:45;;;;;;;0.40;0.40;;;12.80;99.90;;;;;;5071180;28;20182;-77
2022/10/22 00:17:11;;;;;;;0.60;0.60;;;12.80;99.90;;;;;;5071329;28;20285;-76
2022/10/22 00:19:37;;;;;;;0.53;0.53;;;12.80;99.90;;;;;;5071028;28;20698;-76
2022/10/22 00:22:04;;;;;;;0.50;0.50;;;12.80;99.90;;;;;;5071270;28;20206;-76
2022/10/22 00:24:33;;;;;;;0.50;0.50;;;12.80;99.90;;;;;;5070650;28;20186;-76
2022/10/22 00:26:59;;;;;;;0.53;0.53;;;12.80;99.90;;;;;;5071267;28;20202;-76
2022/10/22 00:29:24;;;;;;;0.60;0.60;;;12.70;99.90;;;;;;5070790;28;20523;-77
2022/10/22 00:31:50;;;;;;;0.50;0.50;;;12.70;99.90;;;;;;5070898;28;20255;-76
2022/10/22 00:34:21;;;;;;;0.50;0.50;;;12.70;99.90;;;;;;5071203;28;20545;-76
2022/10/22 00:36:51;;;;;;;0.50;0.50;;;12.70;99.90;;;;;;5070811;28;20182;-77
2022/10/22 00:39:19;;;;;;;0.40;0.40;;;12.70;99.90;;;;;;5071456;28;20312;-77
2022/10/22 00:41:47;;;;;;;0.57;0.57;;;12.70;99.90;;;;;;5070642;28;20293;-77
2022/10/22 00:44:50;;;;;;;0.50;0.50;;;12.60;99.90;;;;;;5070778;28;20193;-77
2022/10/22 00:47:17;;;;;;;0.50;0.50;;;12.70;99.90;;;;;;5062254;28;20205;-76
2022/10/22 00:49:44;;;;;;;0.57;0.57;;;12.70;99.90;;;;;;5070784;28;20175;-76
2022/10/22 00:52:10;;;;;;;0.60;0.60;;;12.70;99.90;;;;;;5071018;28;20202;-76
2022/10/22 00:54:37;;;;;;;0.47;0.47;;;12.70;99.90;;;;;;5070756;28;20233;-77
2022/10/22 00:57:03;;;;;;;0.60;0.60;;;12.70;99.90;;;;;;5070931;28;20674;-77
2022/10/22 00:59:28;;;;;;;0.60;0.60;;;12.70;99.90;;;;;;5070395;28;20174;-77
2022/10/22 01:01:54;;;;;;;0.50;0.50;;;12.70;99.90;;;;;;5070791;28;20533;-76
2022/10/22 01:04:20;;;;;;;0.50;0.50;;;12.70;99.90;;;;;;5071114;28;20643;-77
2022/10/22 01:06:46;;;;;;;0.50;0.50;;;12.70;99.90;;;;;;5071091;28;20301;-77
2022/10/22 01:09:29;;;;;;;0.50;0.50;;;12.70;99.90;;;;;;5070529;28;20580;-77
2022/10/22 01:12:06;;;;;;;0.57;0.57;;;12.70;99.90;;;;;;5070220;28;20197;-76
2022/10/22 01:14:59;;;;;;;0.50;0.50;;;12.70;99.90;;;;;;5070313;28;20179;-78
2022/10/22 01:17:58;;;;;;;0.50;0.50;;;12.60;99.90;;;;;;5075016;28;20662;-78
2022/10/22 01:20:43;;;;;;;0.50;0.50;;;12.70;99.90;;;;;;5066884;28;20190;-76
2022/10/22 01:23:08;;;;;;;0.50;0.50;;;12.60;99.90;;;;;;5074662;28;20193;-76
2022/10/22 01:25:39;;;;;;;0.53;0.53;;;12.60;99.90;;;;;;5074665;28;20726;-77
2022/10/22 01:28:26;;;;;;;0.57;0.57;;;12.60;99.90;;;;;;5074586;28;20256;-77
2022/10/22 01:30:55;;;;;;;0.50;0.50;;;12.60;99.90;;;;;;5074207;28;20282;-77
2022/10/22 01:33:24;;;;;;;0.67;0.67;;;12.60;99.90;;;;;;5074932;28;20265;-76
2022/10/22 01:35:51;;;;;;;0.50;0.50;;;12.60;99.90;;;;;;5074677;28;20183;-77
2022/10/22 01:38:20;;;;;;;0.50;0.50;;;12.60;99.90;;;;;;5074264;28;20175;-77
2022/10/22 01:40:47;;;;;;;0.60;0.60;;;12.60;99.90;;;;;;5085963;28;20194;-77
2022/10/22 01:43:13;;;;;;;0.63;0.63;;;12.60;99.90;;;;;;5088805;28;20201;-77
2022/10/22 01:45:43;;;;;;;0.60;0.60;;;12.60;99.90;;;;;;5087857;28;20194;-77
2022/10/22 01:48:44;;;;;;;0.60;0.60;;;12.60;99.90;;;;;;5088210;28;20215;-77
2022/10/22 01:51:30;;;;;;;0.60;0.60;;;12.50;99.90;;;;;;5086149;28;20198;-77
2022/10/22 01:54:33;;;;;;;0.50;0.50;;;12.40;99.90;;;;;;5084692;28;20273;-78
2022/10/22 01:57:40;;;;;;;0.50;0.50;;;12.50;99.90;;;;;;5075668;28;20205;-77
2022/10/22 02:00:09;;;;;;;0.50;0.50;;;12.50;99.90;;;;;;5073528;28;20202;-77
2022/10/22 02:03:03;;;;;;;0.60;0.60;;;12.50;99.90;;;;;;5074701;28;20174;-76
2022/10/22 02:05:41;;;;;;;0.57;0.57;;;12.50;99.90;;;;;;5074490;28;20183;-78
2022/10/22 02:08:14;;;;;;;0.50;0.50;;;12.50;99.90;;;;;;5074048;28;20808;-76
2022/10/22 02:10:43;;;;;;;0.50;0.50;;;12.50;99.90;;;;;;5073072;28;20199;-76
2022/10/22 02:13:14;;;;;;;0.57;0.57;;;12.40;99.90;;;;;;5074305;28;20267;-78
2022/10/22 02:15:42;;;;;;;0.50;0.50;;;12.50;99.90;;;;;;5074154;28;20179;-77
2022/10/22 02:18:08;;;;;;;0.50;0.50;;;12.40;99.90;;;;;;5074025;28;20193;-77
2022/10/22 02:20:36;;;;;;;0.50;0.50;;;12.40;99.90;;;;;;5073338;28;20282;-76
2022/10/22 02:23:03;;;;;;;0.50;0.50;;;12.40;99.90;;;;;;5073875;28;20199;-75
2022/10/22 02:25:32;;;;;;;0.50;0.50;;;12.40;99.90;;;;;;5074008;28;20194;-77
2022/10/22 02:28:11;;;;;;;0.50;0.50;;;12.40;99.90;;;;;;5072820;28;20662;-77
2022/10/22 02:30:41;;;;;;;0.60;0.60;;;12.40;99.90;;;;;;5072918;28;20206;-77
2022/10/22 02:33:32;;;;;;;0.50;0.50;;;12.40;99.90;;;;;;5073713;28;20182;-77
2022/10/22 02:35:59;;;;;;;0.50;0.50;;;12.40;99.90;;;;;;5058882;28;20190;-76
2022/10/22 02:38:27;;;;;;;0.40;0.40;;;12.40;99.90;;;;;;5073538;28;20190;-77
2022/10/22 02:40:52;;;;;;;0.50;0.50;;;12.30;99.90;;;;;;5072564;28;20199;-77
2022/10/22 02:43:18;;;;;;;0.50;0.50;;;12.30;99.90;;;;;;5073311;28;20183;-76
2022/10/22 02:45:45;;;;;;;0.50;0.50;;;12.30;99.90;;;;;;5072887;28;20554;-77
2022/10/22 02:48:10;;;;;;;0.50;0.50;;;12.30;99.90;;;;;;5072959;28;20202;-77
2022/10/22 02:50:36;;;;;;;0.50;0.50;;;12.30;99.90;;;;;;5072317;28;20197;-76
2022/10/22 02:53:02;;;;;;;0.60;0.60;;;12.30;99.90;;;;;;5073099;28;20254;-76
2022/10/22 02:55:27;;;;;;;0.50;0.50;;;12.40;99.90;;;;;;5072781;28;20186;-76
2022/10/22 02:57:53;;;;;;;0.50;0.50;;;12.30;99.90;;;;;;5072909;28;20269;-77
2022/10/22 03:00:19;;;;;;;0.50;0.50;;;12.30;99.90;;;;;;5072264;28;20301;-77
2022/10/22 03:02:44;;;;;;;0.40;0.40;;;12.30;99.90;;;;;;5072816;28;20174;-77
2022/10/22 03:05:10;;;;;;;0.50;0.50;;;12.30;99.90;;;;;;5073178;28;20190;-76
2022/10/22 03:07:36;;;;;;;0.50;0.50;;;12.20;99.90;;;;;;5072634;28;20210;-77
2022/10/22 03:10:01;;;;;;;0.50;0.50;;;12.20;99.90;;;;;;5072119;28;20589;-76
2022/10/22 03:12:27;;;;;;;0.50;0.50;;;12.20;99.90;;;;;;5073495;28;20290;-77
2022/10/22 03:14:52;;;;;;;0.50;0.50;;;12.20;99.90;;;;;;5072981;28;20174;-77
2022/10/22 03:17:18;;;;;;;0.60;0.60;;;12.30;99.90;;;;;;5077467;28;20623;-76
2022/10/22 03:19:43;;;;;;;0.43;0.43;;;12.20;99.90;;;;;;5080902;28;20175;-77
2022/10/22 03:22:13;;;;;;;0.60;0.60;;;12.30;99.90;;;;;;5079565;28;20280;-76
2022/10/22 03:24:42;;;;;;;0.60;0.60;;;12.30;99.90;;;;;;5080056;28;20201;-76
2022/10/22 03:27:09;;;;;;;0.50;0.50;;;12.30;99.90;;;;;;5074340;28;20237;-77
2022/10/22 03:29:37;;;;;;;0.60;0.60;;;12.30;99.90;;;;;;5071933;28;20231;-77
2022/10/22 03:32:02;;;;;;;0.57;0.57;;;12.30;99.90;;;;;;5072052;28;20194;-77
2022/10/22 03:34:28;;;;;;;0.40;0.40;;;12.40;99.90;;;;;;5072423;28;20205;-77
2022/10/22 03:36:56;;;;;;;0.60;0.60;;;12.40;99.90;;;;;;5072003;28;20178;-77
2022/10/22 03:39:22;;;;;;;0.60;0.60;;;12.40;99.90;;;;;;5071605;28;20189;-77
2022/10/22 03:41:48;;;;;;;0.50;0.50;;;12.40;99.90;;;;;;5071418;28;20194;-76
2022/10/22 03:44:16;;;;;;;0.60;0.60;;;12.40;99.90;;;;;;5071137;28;20178;-77
2022/10/22 03:46:41;;;;;;;0.53;0.53;;;12.40;99.90;;;;;;5054327;28;20195;-77
2022/10/22 03:49:07;;;;;;;0.60;0.60;;;12.50;99.90;;;;;;5071790;28;20186;-78
2022/10/22 03:51:33;;;;;;;0.50;0.50;;;12.50;99.90;;;;;;5071068;28;20230;-76
2022/10/22 03:53:58;;;;;;;0.60;0.60;;;12.50;99.90;;;;;;5072095;28;20182;-77
2022/10/22 03:56:25;;;;;;;0.50;0.50;;;12.50;99.90;;;;;;5071671;28;20557;-77
2022/10/22 03:58:50;;;;;;;0.60;0.60;;;12.50;99.90;;;;;;5071327;28;20322;-76
2022/10/22 04:01:16;;;;;;;0.50;0.50;;;12.50;99.90;;;;;;5070914;28;20204;-77
2022/10/22 04:03:41;;;;;;;0.57;0.57;;;12.50;99.90;;;;;;5071528;28;20549;-76
2022/10/22 04:06:09;;;;;;;0.50;0.50;;;12.50;99.90;;;;;;5071643;28;20174;-77
2022/10/22 04:08:35;;;;;;;0.60;0.60;;;12.50;99.90;;;;;;5071618;28;20213;-78
2022/10/22 04:11:01;;;;;;;0.57;0.57;;;12.50;99.90;;;;;;5070011;28;20195;-77
2022/10/22 04:13:27;;;;;;;0.60;0.60;;;12.40;99.90;;;;;;5070944;28;20186;-76
2022/10/22 04:15:52;;;;;;;0.57;0.57;;;12.40;99.90;;;;;;5071149;28;20634;-76
2022/10/22 04:18:19;;;;;;;0.50;0.50;;;12.30;99.90;;;;;;5071323;28;20595;-77
2022/10/22 04:20:44;;;;;;;0.60;0.60;;;12.40;99.90;;;;;;5070655;28;20685;-77
2022/10/22 04:23:10;;;;;;;0.60;0.60;;;12.30;99.90;;;;;;5071032;28;20286;-77
2022/10/22 04:25:36;;;;;;;0.43;0.43;;;12.20;99.90;;;;;;5071079;28;20181;-77
2022/10/22 04:28:02;;;;;;;0.60;0.60;;;12.10;99.90;;;;;;5071100;28;20701;-76
2022/10/22 04:30:27;;;;;;;0.60;0.60;;;12.10;99.90;;;;;;5074577;28;20762;-76
2022/10/22 04:32:53;;;;;;;0.50;0.50;;;12.00;99.90;;;;;;5075293;28;20248;-76
2022/10/22 04:35:18;;;;;;;0.60;0.60;;;11.90;99.90;;;;;;5071459;28;20231;-76
2022/10/22 04:37:44;;;;;;;0.50;0.50;;;11.90;99.90;;;;;;5070759;28;20178;-77
2022/10/22 04:40:10;;;;;;;0.57;0.57;;;12.00;99.90;;;;;;5070314;28;20333;-76
2022/10/22 04:42:35;;;;;;;0.50;0.50;;;11.90;99.90;;;;;;5070636;28;20278;-75
2022/10/22 04:45:01;;;;;;;0.60;0.60;;;11.90;99.90;;;;;;5070825;28;20667;-77
2022/10/22 04:47:27;;;;;;;0.50;0.50;;;11.80;99.90;;;;;;5070840;28;20218;-76
2022/10/22 04:49:52;;;;;;;0.50;0.50;;;11.70;99.90;;;;;;5069522;28;20186;-77
2022/10/22 04:52:18;;;;;;;0.60;0.60;;;11.70;99.90;;;;;;5070901;28;20263;-77
2022/10/22 04:54:43;;;;;;;0.60;0.60;;;11.70;99.90;;;;;;5070910;28;20243;-76
2022/10/22 04:57:09;;;;;;;0.70;0.70;;;11.60;99.90;;;;;;5070595;28;20198;-77
2022/10/22 04:59:34;;;;;;;0.53;0.53;;;11.70;99.90;;;;;;5070447;28;20240;-76
2022/10/22 05:02:00;;;;;;;0.57;0.57;;;11.90;99.90;;;;;;5070194;28;20618;-76
2022/10/22 05:04:25;;;;;;;0.53;0.53;;;12.00;99.90;;;;;;5070799;28;20269;-76
2022/10/22 05:06:51;;;;;;;0.60;0.60;;;12.10;99.90;;;;;;5070401;28;20642;-76
2022/10/22 05:09:19;;;;;;;0.60;0.60;;;12.00;99.90;;;;;;5070718;28;20643;-76
2022/10/22 05:11:49;;;;;;;0.50;0.50;;;12.00;99.90;;;;;;5069988;28;20198;-76
2022/10/22 05:14:17;;;;;;;0.60;0.60;;;11.90;99.90;;;;;;5070540;28;20320;-76
2022/10/22 05:16:46;;;;;;;0.60;0.60;;;12.00;99.90;;;;;;5070399;28;20194;-76
2022/10/22 05:19:23;;;;;;;0.50;0.50;;;12.00;99.90;;;;;;5070422;28;20210;-76
2022/10/22 05:21:50;;;;;;;0.60;0.60;;;12.00;99.90;;;;;;5070174;28;20194;-75
2022/10/22 05:24:15;;;;;;;0.40;0.40;;;11.90;99.90;;;;;;5070393;28;20675;-76
2022/10/22 05:26:41;;;;;;;0.60;0.60;;;11.90;99.90;;;;;;5070603;28;20219;-76
2022/10/22 05:29:07;;;;;;;0.70;0.70;;;11.90;99.90;;;;;;5070360;28;20182;-75
2022/10/22 05:31:32;;;;;;;0.60;0.60;;;11.90;99.90;;;;;;5069895;28;20564;-77
2022/10/22 05:33:58;;;;;;;0.50;0.50;;;11.90;99.90;;;;;;5070569;28;20182;-76
2022/10/22 05:36:24;;;;;;;0.40;0.40;;;11.80;99.90;;;;;;5070455;28;20186;-77
2022/10/22 05:38:50;;;;;;;0.50;0.50;;;11.80;99.90;;;;;;5070523;28;20639;-77
2022/10/22 05:41:21;;;;;;;0.60;0.60;;;11.80;99.90;;;;;;5069992;28;20205;-77
2022/10/22 05:43:47;;;;;;;0.40;0.40;;;11.80;99.90;;;;;;5069803;28;20778;-76
2022/10/22 05:46:15;;;;;;;0.50;0.50;;;11.80;99.90;;;;;;5070511;28;20217;-76
2022/10/22 05:48:41;;;;;;;0.60;0.60;;;11.80;99.90;;;;;;5070108;28;20218;-76
2022/10/22 05:51:09;;;;;;;0.40;0.40;;;11.80;99.90;;;;;;5069653;28;20260;-76
2022/10/22 05:53:37;;;;;;;0.60;0.60;;;11.80;99.90;;;;;;5069980;28;20243;-76
2022/10/22 05:56:05;;;;;;;0.50;0.50;;;11.80;99.90;;;;;;5070441;28;20179;-76
2022/10/22 05:58:32;;;;;;;0.60;0.60;;;11.80;99.90;;;;;;5070115;28;20175;-76
2022/10/22 06:01:06;;;;;;;0.40;0.40;;;11.80;99.90;;;;;;5069907;28;20202;-76
2022/10/22 06:03:32;;;;;;;0.50;0.50;;;11.80;99.90;;;;;;5073628;28;20197;-75
2022/10/22 06:06:04;;;;;;;0.60;0.60;;;11.80;99.90;;;;;;5073869;28;20634;-76
2022/10/22 06:08:29;;;;;;;0.80;0.80;;;11.80;99.90;;;;;;5073778;28;20246;-76
2022/10/22 06:10:55;;;;;;;0.60;0.60;;;11.80;99.90;;;;;;5073252;28;20194;-76
2022/10/22 06:13:21;;;;;;;0.50;0.50;;;11.90;99.90;;;;;;5073467;28;20178;-76
2022/10/22 06:15:47;;;;;;;0.57;0.57;;;11.90;99.90;;;;;;5073641;28;20178;-77
2022/10/22 06:18:13;;;;;;;0.50;0.50;;;11.80;99.90;;;;;;5073626;28;20228;-76
2022/10/22 06:20:39;;;;;;;0.50;0.50;;;11.90;99.90;;;;;;5072625;28;20281;-77
2022/10/22 06:23:04;;;;;;;0.60;0.60;;;11.90;99.90;;;;;;5073418;28;20287;-76
2022/10/22 06:25:30;;;;;;;0.57;0.57;;;11.90;99.90;;;;;;5073542;28;20731;-76
2022/10/22 06:27:55;;;;;;;0.50;0.50;;;11.90;99.90;;;;;;5073473;28;20221;-77
2022/10/22 06:30:21;;;;;;;0.60;0.60;;;11.90;99.90;;;;;;5073545;28;20197;-77
2022/10/22 06:32:46;;;;;;;0.60;0.60;;;11.90;99.90;;;;;;5073947;28;20177;-77
2022/10/22 06:35:12;;;;;;;0.60;0.60;;;11.90;99.90;;;;;;5073244;28;20181;-77
2022/10/22 06:37:37;;;;;;;0.50;0.50;;;11.90;99.90;;;;;;5073485;28;20179;-77
2022/10/22 06:40:03;;;;;;;0.60;0.60;;;12.00;99.90;;;;;;5070873;28;20202;-76
2022/10/22 06:42:29;;;;;;;0.50;0.50;;;11.90;99.90;;;;;;5072841;28;20624;-75
2022/10/22 06:44:54;;;;;;;0.60;0.60;;;12.00;99.90;;;;;;5072063;28;20753;-76
2022/10/22 06:47:20;;;;;;;0.50;0.50;;;12.10;99.90;;;;;;5072498;28;20214;-76
2022/10/22 06:49:47;;;;;;;0.57;0.57;;;12.10;99.90;;;;;;5072133;28;20166;-77
2022/10/22 06:52:12;;;;;;;0.50;0.50;;;12.20;99.90;;;;;;5072982;28;20245;-77
2022/10/22 06:54:38;;;;;;;0.50;0.50;;;12.20;99.90;;;;;;5072967;28;20686;-77
2022/10/22 06:57:03;;;;;;;0.60;0.60;;;12.30;99.90;;;;;;5072014;28;20174;-77
2022/10/22 06:59:29;;;;;;;0.60;0.60;;;12.40;99.90;;;;;;5072169;28;20181;-76
2022/10/22 07:01:55;;;;;;;0.50;0.50;;;12.40;99.90;;;;;;5071306;28;20198;-78
2022/10/22 07:04:20;;;;;;;0.40;0.40;;;12.40;99.90;;;;;;5073933;28;20198;-78
2022/10/22 07:06:46;;;;;;;0.40;0.40;;;12.40;99.90;;;;;;5073279;28;20214;-77
2022/10/22 07:09:11;;;;;;;0.40;0.40;;;12.40;99.90;;;;;;5072412;28;20515;-77
2022/10/22 07:11:42;;;;;;;0.50;0.50;;;12.50;99.90;;;;;;5072544;28;20281;-78
2022/10/22 07:14:08;;;;;;;0.60;0.60;;;12.50;99.90;;;;;;5073301;28;20182;-79
2022/10/22 07:16:34;;;;;;;0.50;0.50;;;12.40;99.90;;;;;;5073764;28;20187;-78
2022/10/22 07:19:01;;;;;;;0.50;0.50;;;12.50;99.90;;;;;;5073790;28;20193;-78
2022/10/22 07:21:27;;;;;;;0.60;0.60;;;12.50;99.90;;;;;;5071842;28;20289;-78
2022/10/22 07:23:52;;;;;;;0.53;0.53;;;12.50;99.90;;;;;;5071882;28;20194;-78
2022/10/22 07:26:24;;;;;;;0.60;0.60;;;12.50;99.90;;;;;;5072698;28;20178;-77
2022/10/22 07:28:50;;;;;;;0.50;0.50;;;12.70;99.90;;;;;;5071999;28;20220;-79
2022/10/22 07:31:18;;;;;;;0.57;0.57;;;12.70;99.90;;;;;;5071297;28;20631;-78
2022/10/22 07:33:44;;;;;;;0.60;0.60;;;12.80;99.90;;;;;;5071786;28;20178;-79
2022/10/22 07:36:16;;;;;;;0.60;0.60;;;12.80;99.90;;;;;;5071003;28;20202;-77
2022/10/22 07:38:46;;;;;;;0.50;0.50;;;12.70;99.90;;;;;;5072412;28;20205;-78
2022/10/22 07:41:13;;;;;;;0.50;0.50;;;12.80;99.90;;;;;;5070632;28;20194;-78
2022/10/22 07:43:38;;;;;;;0.50;0.50;;;13.10;99.90;;;;;;5072483;28;20194;-78
2022/10/22 07:46:04;;;;;;;0.50;0.50;;;13.20;99.90;;;;;;5071828;28;20585;-80
2022/10/22 07:48:30;;;;;;;0.50;0.50;;;13.40;99.90;;;;;;5055183;28;20374;-78
2022/10/22 07:50:57;;;;;;;0.50;0.50;;;13.50;99.90;;;;;;5072050;28;20317;-80
2022/10/22 07:53:22;;;;;;;0.50;0.50;;;14.00;99.90;;;;;;5071820;28;20185;-79
2022/10/22 07:55:49;;;;;;;0.40;0.40;;;14.00;99.90;;;;;;5070980;28;20186;-78
2022/10/22 07:58:17;;;;;;;0.50;0.50;;;13.90;99.90;;;;;;5064377;28;20683;-79
2022/10/22 08:00:43;;;;;;;0.50;0.50;;;13.90;99.90;;;;;;5061230;28;20199;-79
2022/10/22 08:03:12;;;;;;;0.50;0.50;;;13.80;99.90;;;;;;5066722;28;20851;-79
2022/10/22 08:05:38;;;;;;;0.50;0.50;;;13.80;99.90;;;;;;5064608;28;20206;-78
2022/10/22 08:08:07;;;;;;;0.50;0.50;;;13.80;99.90;;;;;;5064766;28;20314;-79
2022/10/22 08:10:33;;;;;;;0.40;0.40;;;13.90;99.90;;;;;;5064881;28;20196;-79
2022/10/22 08:12:59;;;;;;;0.47;0.47;;;14.00;99.90;;;;;;5071237;28;20186;-78
2022/10/22 08:15:26;;;;;;;0.40;0.40;;;14.20;99.90;;;;;;5056277;28;20175;-80
2022/10/22 08:17:51;;;;;;;0.40;0.40;;;14.20;99.90;;;;;;5060604;28;20540;-77
2022/10/22 08:20:17;;;;;;;0.50;0.50;;;14.30;99.90;;;;;;5061993;28;20668;-77
2022/10/22 08:22:44;;;;;;;0.50;0.50;;;14.50;99.90;;;;;;5053048;28;20170;-77
2022/10/22 08:25:12;;;;;;;0.50;0.50;;;14.50;99.90;;;;;;5062912;28;20542;-77
2022/10/22 08:27:37;;;;;;;0.50;0.50;;;14.60;99.90;;;;;;5051148;28;20219;-77
2022/10/22 08:30:04;;;;;;;0.50;0.50;;;14.90;99.90;;;;;;5059411;28;20325;-76
2022/10/22 08:32:30;;;;;;;0.40;0.40;;;15.00;99.90;;;;;;5067682;28;20395;-77
2022/10/22 08:34:56;;;;;;;0.30;0.30;;;15.20;99.90;;;;;;5050787;28;20203;-78
2022/10/22 08:37:22;;;;;;;0.43;0.43;;;15.00;99.90;;;;;;5077626;28;20198;-79
2022/10/22 08:39:47;;;;;;;0.43;0.43;;;15.30;99.90;;;;;;5080195;28;20187;-79
2022/10/22 08:42:34;;;;;;;0.43;0.43;;;16.20;42.70;;;;;;5079967;28;20182;-79
2022/10/22 08:45:21;;;;;;;0.30;0.30;;;18.30;1.00;;;;;;5061215;28;20233;-79
2022/10/22 08:48:06;;;;;;;0.30;0.30;;;19.40;99.90;;;;;;5066953;28;20210;-77
2022/10/22 08:50:50;;;;;;;0.50;0.50;;;19.20;99.90;;;;;;5048878;28;20214;-79
2022/10/22 08:53:24;;;;;;;0.30;0.30;;;19.10;1.00;;;;;;5057642;28;20273;-79
2022/10/22 08:55:52;;;;;;;0.40;0.40;;;18.50;1.00;;;;;;5064602;28;20271;-79
2022/10/22 08:58:44;;;;;;;0.40;0.40;;;18.30;99.90;;;;;;5072285;28;20189;-80
2022/10/22 09:01:15;;;;;;;0.37;0.37;;;19.60;99.90;;;;;;5065305;28;20314;-79
2022/10/22 09:03:50;;;;;;;0.50;0.50;;;20.80;1.00;;;;;;5059166;28;20621;-80
2022/10/22 09:06:22;;;;;;;0.50;0.50;;;21.40;1.00;;;;;;5065562;28;20185;-79
2022/10/22 09:08:49;;;;;;;0.50;0.50;;;20.80;1.00;;;;;;5064081;28;20214;-79
2022/10/22 09:11:24;;;;;;;0.50;0.50;;;21.50;1.00;;;;;;5068843;28;20678;-82
2022/10/22 09:13:52;;;;;;;0.60;0.60;;;21.60;1.00;;;;;;5071675;28;20181;-82
2022/10/22 09:16:31;;;;;;;0.40;0.40;;;21.80;1.00;;;;;;5075174;28;20220;-82
2022/10/22 09:19:18;;;;;;;0.50;0.50;;;21.80;99.90;;;;;;5067845;28;20578;-81
2022/10/22 09:22:10;;;;;;;0.50;0.50;;;22.20;99.90;;;;;;5074771;28;20701;-82
2022/10/22 09:24:47;;;;;;;0.60;0.60;;;22.50;1.00;;;;;;5070567;28;20643;-76
2022/10/22 09:27:16;;;;;;;0.60;0.60;;;23.00;94.90;;;;;;5070113;28;20285;-76
2022/10/22 09:29:44;;;;;;;0.53;0.53;;;23.10;99.90;;;;;;5065729;28;20240;-74
2022/10/22 09:32:10;;;;;;;0.60;0.60;;;22.60;27.80;;;;;;5064998;28;20221;-75
2022/10/22 09:34:35;;;;;;;0.50;0.50;;;23.10;16.40;;;;;;5070206;28;20560;-74
2022/10/22 09:37:07;;;;;;;0.60;0.60;;;23.10;22.70;;;;;;5067050;28;20190;-75
2022/10/22 09:39:37;;;;;;;0.50;0.50;;;23.00;91.50;;;;;;5060260;28;20183;-75
2022/10/22 09:42:04;;;;;;;0.50;0.50;;;23.10;1.00;;;;;;5067447;28;20702;-75
2022/10/22 09:44:33;;;;;;;0.50;0.50;;;23.30;1.00;;;;;;5073458;28;20281;-77
2022/10/22 09:47:03;;;;;;;0.40;0.40;;;23.00;8.20;;;;;;5069340;28;20281;-76
2022/10/22 09:49:31;;;;;;;0.50;0.50;;;23.30;1.00;;;;;;5073442;28;20224;-75
2022/10/22 09:51:59;;;;;;;0.70;0.70;;;23.40;1.00;;;;;;5063142;28;20206;-75
2022/10/22 09:54:38;;;;;;;0.70;0.70;;;23.80;1.00;;;;;;5070390;28;20198;-75
2022/10/22 09:57:17;;;;;;;0.50;0.50;;;23.40;1.00;;;;;;5072928;28;20182;-77
2022/10/22 09:59:46;;;;;;;0.53;0.53;;;23.30;1.00;;;;;;5071835;28;20204;-76
2022/10/22 10:02:14;;;;;;;0.60;0.60;;;23.50;1.00;;;;;;5069831;28;20182;-74
2022/10/22 10:04:46;;;;;;;0.47;0.47;;;23.50;1.00;;;;;;5073207;28;20269;-74
2022/10/22 10:07:21;;;;;;;0.50;0.50;;;24.10;1.00;;;;;;5073309;28;20526;-72
2022/10/22 10:09:50;;;;;;;0.43;0.43;;;24.20;1.00;;;;;;5069891;28;20531;-74
2022/10/22 10:12:31;;;;;;;0.37;0.37;;;24.40;1.00;;;;;;5072439;28;20182;-73
2022/10/22 10:15:32;;;;;;;0.50;0.50;;;24.50;1.00;;;;;;5073324;28;20565;-72
2022/10/22 10:18:22;;;;;;;0.40;0.40;;;25.00;1.00;;;;;;5067445;28;20182;-74
2022/10/22 10:21:11;;;;;;;0.30;0.30;;;24.60;1.00;;;;;;5068301;28;20290;-77
2022/10/22 10:23:55;;;;;;;0.33;0.33;;;24.20;1.00;;;;;;5065723;28;20198;-76
2022/10/22 10:26:38;;;;;;;0.50;0.50;;;24.40;1.00;;;;;;5066536;28;20174;-73
2022/10/22 10:29:10;;;;;;;0.47;0.47;;;25.60;1.00;;;;;;5072801;28;20214;-74
2022/10/22 10:32:05;;;;;;;0.30;0.30;;;24.90;1.00;;;;;;5073288;28;20300;-73
2022/10/22 10:34:55;;;;;;;0.40;0.40;;;24.70;1.00;;;;;;5072060;28;20170;-74
2022/10/22 10:37:25;;;;;;;0.50;0.50;;;25.80;1.00;;;;;;5073001;28;20788;-73
2022/10/22 10:40:13;;;;;;;0.50;0.50;;;25.00;1.00;;;;;;5072105;28;20295;-73
2022/10/22 10:42:42;;;;;;;0.40;0.40;;;24.70;1.00;;;;;;5071950;28;20178;-73
2022/10/22 10:45:33;;;;;;;0.33;0.33;;;25.40;1.00;;;;;;5072736;28;20175;-73
2022/10/22 10:48:39;;;;;;;0.50;0.50;;;26.30;1.00;;;;;;5063764;28;20214;-74
2022/10/22 10:51:10;;;;;;;0.30;0.30;;;26.00;1.00;;;;;;5066112;28;20201;-72
2022/10/22 10:54:03;;;;;;;0.17;0.17;;;27.00;1.00;;;;;;5072303;28;20206;-76
2022/10/22 10:56:37;;;;;;;0.30;0.30;;;26.20;1.00;;;;;;5072939;28;20186;-73
2022/10/22 10:59:37;;;;;;;0.20;0.20;;;26.30;1.00;;;;;;5056450;28;20175;-72
2022/10/22 11:02:45;;;;;;;0.33;0.33;;;25.90;1.00;;;;;;5072893;28;20213;-74
2022/10/22 11:05:27;;;;;;;0.30;0.30;;;26.20;1.00;;;;;;5058153;28;20171;-73
2022/10/22 11:08:03;;;;;;;0.40;0.40;;;26.30;1.00;;;;;;5066945;28;20203;-73
2022/10/22 11:10:58;;;;;;;0.40;0.40;;;27.00;1.00;;;;;;5072472;28;20194;-72
2022/10/22 11:13:39;;;;;;;0.30;0.30;;;26.40;1.00;;;;;;5058511;28;20202;-73
2022/10/22 11:16:23;;;;;;;0.40;0.40;;;26.80;1.00;;;;;;5072658;28;20185;-73
2022/10/22 11:19:11;;;;;;;0.40;0.40;;;26.20;1.00;;;;;;5070721;28;20194;-82
2022/10/22 11:21:45;;;;;;;0.47;0.47;;;26.50;1.00;;;;;;5074990;28;20209;-80
2022/10/22 11:24:42;;;;;;;0.30;0.30;;;26.70;1.00;;;;;;5075169;28;20191;-80
2022/10/22 11:27:37;;;;;;;0.30;0.30;;;27.30;1.00;;;;;;5058822;28;20205;-80
2022/10/22 11:30:15;;;;;;;0.50;0.50;;;26.20;1.00;;;;;;5073716;28;20178;-79
2022/10/22 11:32:44;;;;;;;0.50;0.50;;;25.60;1.00;;;;;;5073666;28;20178;-78
2022/10/22 11:35:22;;;;;;;0.60;0.60;;;26.70;1.00;;;;;;5073937;28;20183;-80
2022/10/22 11:37:48;;;;;;;0.40;0.40;;;27.40;1.00;;;;;;5071085;28;20174;-78
2022/10/22 11:40:31;;;;;;;0.37;0.37;;;27.70;1.00;;;;;;5060070;28;20210;-78
2022/10/22 11:43:02;;;;;;;0.30;0.30;;;28.50;1.00;;;;;;5071276;28;20663;-78
2022/10/22 11:45:40;;;;;;;0.10;0.10;;;26.70;1.00;;;;;;5072716;28;20426;-79
2022/10/22 11:48:09;;;;;;;0.40;0.40;;;25.30;1.00;;;;;;5072840;28;20673;-79
2022/10/22 11:50:43;;;;;;;0.40;0.40;;;26.70;1.00;;;;;;5073279;28;20195;-78
2022/10/22 11:53:12;;;;;;;0.33;0.33;;;27.60;1.00;;;;;;5072869;28;20178;-77
2022/10/22 11:55:46;;;;;;;0.20;0.20;;;25.60;1.00;;;;;;5073530;28;20643;-77
2022/10/22 11:58:27;;;;;;;0.50;0.50;;;23.80;1.00;;;;;;5072690;28;20185;-78
2022/10/22 12:00:54;;;;;;;0.50;0.50;;;22.50;1.00;;;;;;5066639;28;20194;-79
2022/10/22 12:03:57;;;;;;;0.70;0.70;;;22.30;1.00;;;;;;5073185;28;20639;-78
2022/10/22 12:06:25;;;;;;;0.60;0.60;;;21.60;1.00;;;;;;5043344;28;20186;-78
2022/10/22 12:08:53;;;;;;;0.53;0.53;;;24.60;1.00;;;;;;5071910;28;20311;-77
2022/10/22 12:11:26;;;;;;;0.60;0.60;;;26.20;1.00;;;;;;5069804;28;20542;-78
2022/10/22 12:13:57;;;;;;;0.60;0.60;;;25.80;1.00;;;;;;5060624;28;20714;-78
2022/10/22 12:16:43;;;;;;;0.70;0.70;;;27.80;1.00;;;;;;5073417;28;20247;-79
2022/10/22 12:19:09;;;;;;;0.70;0.70;;;28.20;1.00;;;;;;5072092;28;20170;-78
2022/10/22 12:21:37;;;;;;;0.60;0.60;;;28.90;1.00;;;;;;5071724;28;20202;-77
2022/10/22 12:24:04;;;;;;;0.60;0.60;;;27.50;1.00;;;;;;5071619;28;20658;-77
2022/10/22 12:26:33;;;;;;;0.30;0.30;;;28.70;1.00;;;;;;5072310;28;20174;-78
2022/10/22 12:29:00;;;;;;;0.40;0.40;;;29.70;1.00;;;;;;5071881;28;20210;-78
2022/10/22 12:31:26;;;;;;;0.50;0.50;;;26.10;1.00;;;;;;5070892;28;20205;-78
2022/10/22 12:33:59;;;;;;;0.43;0.43;;;27.10;1.00;;;;;;5071975;28;20515;-78
2022/10/22 12:36:25;;;;;;;0.50;0.50;;;28.30;1.00;;;;;;5071974;28;20210;-77
2022/10/22 12:38:51;;;;;;;0.50;0.50;;;28.30;1.00;;;;;;5073872;28;20178;-77
2022/10/22 12:41:17;;;;;;;0.67;0.67;;;27.50;1.00;;;;;;5075905;28;20195;-77
2022/10/22 12:43:43;;;;;;;0.40;0.40;;;29.00;1.00;;;;;;5075358;28;20182;-79
2022/10/22 12:46:13;;;;;;;0.60;0.60;;;25.10;1.00;;;;;;5071457;28;20181;-77
2022/10/22 12:48:44;;;;;;;0.63;0.63;;;25.60;1.00;;;;;;5071089;28;20213;-78
2022/10/22 12:51:17;;;;;;;0.60;0.60;;;27.00;1.00;;;;;;5070675;28;20564;-77
2022/10/22 12:53:49;;;;;;;0.53;0.53;;;24.60;1.00;;;;;;5071116;28;20182;-76
2022/10/22 12:56:24;;;;;;;0.70;0.70;;;23.40;1.00;;;;;;5055206;28;20538;-77
2022/10/22 12:59:02;;;;;;;0.60;0.60;;;22.50;1.00;;;;;;5071020;28;20174;-76
2022/10/22 13:01:33;;;;;;;0.57;0.57;;;22.20;1.00;;;;;;5070789;28;20198;-76
2022/10/22 13:04:19;;;;;;;0.40;0.40;;;21.80;1.00;;;;;;5071122;28;20182;-76
2022/10/22 13:07:13;;;;;;;0.50;0.50;;;22.40;1.00;;;;;;5070898;28;20235;-76
2022/10/22 13:09:56;;;;;;;0.50;0.50;;;22.50;1.00;;;;;;5070519;28;20210;-77